Time;durP1;ratioP1;P1;durP2;ratioP2;P2;SDS_P1;SDS_P2;PMS_P1;PMS_P2;Temp;Humidity;BMP_temperature;BMP_pressure;BME280_temperature;BME280_humidity;BME280_pressure;Samples;Min_cycle;Max_cycle;Signal;HPM_P1;HPM_P2
2023/10/07 00:02:30;;;;;;;4.10;2.75;;;23.30;54.40;;;;;;7678932;22;80032;-49
2023/10/07 00:05:38;;;;;;;4.23;2.40;;;23.30;54.50;;;;;;7679440;22;80717;-70
2023/10/07 00:08:39;;;;;;;4.25;2.65;;;23.30;54.50;;;;;;7679254;22;80299;-69
2023/10/07 00:11:39;;;;;;;4.35;2.60;;;23.30;54.40;;;;;;7680286;22;80330;-67
2023/10/07 00:14:40;;;;;;;3.90;2.45;;;23.30;54.50;;;;;;7680527;22;80194;-67
2023/10/07 00:17:43;;;;;;;3.83;2.55;;;23.30;54.30;;;;;;7681013;22;80722;-68
2023/10/07 00:20:53;;;;;;;6.10;2.30;;;23.30;54.40;;;;;;7678330;22;80711;-68
2023/10/07 00:23:53;;;;;;;5.20;2.40;;;23.30;54.30;;;;;;7680117;22;80347;-65
2023/10/07 00:26:55;;;;;;;3.67;2.33;;;23.30;54.40;;;;;;7679814;22;80923;-67
2023/10/07 00:29:59;;;;;;;4.88;2.58;;;23.20;54.30;;;;;;7680085;22;80888;-62
2023/10/07 00:32:59;;;;;;;4.40;2.67;;;23.30;54.30;;;;;;7678762;22;80619;-63
2023/10/07 00:36:05;;;;;;;3.97;2.47;;;23.20;54.30;;;;;;7678847;22;80043;-62
2023/10/07 00:39:09;;;;;;;4.97;2.75;;;23.20;54.20;;;;;;7678910;22;80306;-64
2023/10/07 00:42:10;;;;;;;4.03;2.28;;;23.30;54.20;;;;;;7678624;22;80302;-52
2023/10/07 00:45:15;;;;;;;3.05;2.42;;;23.20;54.20;;;;;;7651230;22;81807;-51
2023/10/07 00:48:16;;;;;;;4.22;2.72;;;23.20;54.20;;;;;;7652313;22;81882;-56
2023/10/07 00:51:24;;;;;;;3.00;2.17;;;23.20;54.10;;;;;;7678767;22;80441;-49
2023/10/07 00:57:47;;;;;;;3.15;2.00;;;23.20;54.30;;;;;;7678536;22;80253;-52
2023/10/07 01:00:48;;;;;;;4.95;2.72;;;23.20;54.20;;;;;;7678650;22;80502;-50
2023/10/07 01:03:48;;;;;;;4.07;2.22;;;23.20;54.20;;;;;;7678597;22;80435;-47
2023/10/07 01:06:59;;;;;;;5.43;2.50;;;23.20;54.20;;;;;;7679075;22;80454;-52
2023/10/07 01:10:11;;;;;;;3.42;2.17;;;23.20;54.30;;;;;;7678293;22;80364;-48
2023/10/07 01:13:29;;;;;;;3.38;2.40;;;23.20;54.30;;;;;;7651574;22;80477;-51
2023/10/07 01:19:43;;;;;;;4.18;2.45;;;23.20;54.30;;;;;;7677557;22;82401;-50
2023/10/07 01:23:02;;;;;;;3.50;2.10;;;23.20;54.30;;;;;;7678247;22;80221;-48
2023/10/07 01:26:14;;;;;;;5.35;2.25;;;23.20;54.20;;;;;;7650740;22;81316;-48
2023/10/07 01:29:16;;;;;;;4.82;2.33;;;23.20;54.30;;;;;;7678107;22;80405;-48
2023/10/07 01:32:16;;;;;;;3.30;2.00;;;23.20;54.20;;;;;;7677249;22;80946;-47
2023/10/07 01:35:25;;;;;;;3.30;2.10;;;23.20;54.20;;;;;;7678701;22;81014;-48
2023/10/07 01:38:26;;;;;;;3.08;1.95;;;23.20;54.30;;;;;;7677673;22;84939;-51
2023/10/07 01:41:30;;;;;;;4.07;2.65;;;23.20;54.20;;;;;;7651702;22;83016;-53
2023/10/07 01:44:31;;;;;;;3.92;2.50;;;23.20;54.20;;;;;;7677927;22;80641;-52
2023/10/07 01:47:34;;;;;;;5.85;2.30;;;23.20;54.20;;;;;;7679084;22;80673;-51
2023/10/07 01:50:36;;;;;;;4.47;2.38;;;23.20;54.40;;;;;;7678169;22;80599;-50
2023/10/07 01:53:38;;;;;;;3.58;2.50;;;23.20;54.30;;;;;;7678262;22;80441;-48
2023/10/07 01:56:38;;;;;;;6.93;3.00;;;23.20;54.20;;;;;;7678579;22;80687;-51
2023/10/07 01:59:39;;;;;;;3.03;1.95;;;23.20;54.30;;;;;;7652728;22;83822;-50
2023/10/07 02:02:49;;;;;;;3.10;2.10;;;23.20;54.20;;;;;;7650649;22;82656;-49
2023/10/07 02:05:49;;;;;;;2.67;2.08;;;23.20;54.20;;;;;;7679414;22;80628;-48
2023/10/07 02:08:51;;;;;;;4.20;2.47;;;23.20;54.20;;;;;;7651096;22;81683;-53
2023/10/07 02:11:51;;;;;;;3.65;2.35;;;23.20;54.10;;;;;;7646643;22;83732;-53
2023/10/07 02:14:52;;;;;;;6.03;2.38;;;23.20;54.20;;;;;;7676540;22;81210;-48
2023/10/07 02:17:56;;;;;;;4.40;2.80;;;23.20;54.10;;;;;;7678670;22;82348;-53
2023/10/07 02:21:10;;;;;;;4.38;2.55;;;23.20;54.20;;;;;;7652518;22;83028;-51
2023/10/07 02:24:14;;;;;;;4.43;2.38;;;23.20;54.20;;;;;;7677276;22;81583;-53
2023/10/07 02:27:18;;;;;;;4.28;2.55;;;23.20;54.10;;;;;;7676905;22;80731;-50
2023/10/07 02:30:19;;;;;;;4.03;2.40;;;23.20;54.70;;;;;;7678967;22;80594;-49
2023/10/07 02:33:21;;;;;;;4.57;2.60;;;23.20;54.00;;;;;;7677405;22;82612;-49
2023/10/07 02:36:28;;;;;;;5.10;2.70;;;23.20;54.00;;;;;;7676013;22;83193;-50
2023/10/07 02:39:45;;;;;;;4.20;2.22;;;23.20;53.90;;;;;;7678181;22;79937;-49
2023/10/07 02:42:46;;;;;;;5.28;2.80;;;23.20;54.10;;;;;;7677063;22;80041;-47
2023/10/07 02:45:47;;;;;;;4.93;2.40;;;23.20;54.00;;;;;;7677979;22;80427;-49
2023/10/07 02:48:48;;;;;;;4.47;3.08;;;23.20;54.00;;;;;;7676817;22;81838;-49
2023/10/07 02:52:00;;;;;;;4.18;2.40;;;23.20;54.00;;;;;;7675358;22;81505;-47
2023/10/07 02:58:36;;;;;;;3.33;2.20;;;23.20;53.90;;;;;;7678023;22;81153;-50
2023/10/07 03:01:38;;;;;;;4.75;2.72;;;23.10;53.90;;;;;;7678759;22;80749;-49
2023/10/07 03:04:42;;;;;;;3.35;2.00;;;23.20;54.20;;;;;;7679698;22;80306;-48
2023/10/07 03:07:49;;;;;;;4.22;2.38;;;23.20;54.50;;;;;;7675780;22;83151;-48
2023/10/07 03:11:03;;;;;;;4.50;2.60;;;23.20;54.40;;;;;;7680073;22;80983;-47
2023/10/07 03:14:04;;;;;;;4.97;2.40;;;23.20;54.30;;;;;;7678173;22;80366;-48
2023/10/07 03:17:16;;;;;;;3.22;2.20;;;23.20;54.30;;;;;;7680801;22;80730;-50
2023/10/07 03:23:26;;;;;;;4.47;2.88;;;23.20;54.40;;;;;;7678342;22;83581;-50
2023/10/07 03:26:32;;;;;;;3.90;2.75;;;23.20;54.50;;;;;;7678981;22;80366;-49
2023/10/07 03:29:36;;;;;;;5.25;2.72;;;23.20;54.80;;;;;;7679022;22;80606;-48
2023/10/07 03:32:56;;;;;;;4.40;2.60;;;23.20;54.90;;;;;;7678261;22;80330;-50
2023/10/07 03:39:16;;;;;;;3.67;2.30;;;23.20;54.90;;;;;;7678816;22;80819;-48
2023/10/07 03:42:17;;;;;;;3.53;2.38;;;23.20;54.80;;;;;;7678639;22;80519;-51
2023/10/07 03:45:17;;;;;;;5.18;2.60;;;23.20;54.80;;;;;;7678673;22;80288;-49
2023/10/07 03:48:24;;;;;;;5.43;2.92;;;23.20;54.70;;;;;;7676683;22;80429;-48
2023/10/07 03:51:30;;;;;;;5.15;2.60;;;23.20;54.70;;;;;;7677804;22;80334;-49
2023/10/07 03:54:31;;;;;;;4.63;2.58;;;23.20;54.90;;;;;;7678597;22;80828;-48
2023/10/07 03:57:33;;;;;;;4.63;2.72;;;23.20;54.80;;;;;;7677886;22;80323;-51
2023/10/07 04:00:35;;;;;;;5.53;3.00;;;23.20;54.80;;;;;;7679379;22;81090;-49
2023/10/07 04:03:37;;;;;;;6.20;2.92;;;23.20;54.90;;;;;;7678985;22;81293;-49
2023/10/07 04:06:37;;;;;;;4.47;2.60;;;23.20;55.10;;;;;;7679366;22;80361;-67
2023/10/07 04:09:41;;;;;;;4.82;2.38;;;23.20;55.20;;;;;;7679624;22;81148;-67
2023/10/07 04:12:46;;;;;;;5.45;3.08;;;23.20;55.30;;;;;;7677236;22;80935;-65
2023/10/07 04:15:51;;;;;;;4.28;2.45;;;23.20;55.50;;;;;;7679274;22;80830;-63
2023/10/07 04:18:52;;;;;;;4.80;2.70;;;23.20;55.50;;;;;;7679371;22;81195;-65
2023/10/07 04:21:55;;;;;;;4.82;2.85;;;23.20;55.50;;;;;;7678752;22;80370;-66
2023/10/07 04:25:03;;;;;;;4.43;2.45;;;23.20;55.50;;;;;;7666642;22;80787;-62
2023/10/07 04:28:06;;;;;;;3.92;2.35;;;23.20;55.60;;;;;;7665774;22;80629;-63
2023/10/07 04:31:11;;;;;;;5.20;2.80;;;23.20;55.60;;;;;;7671037;22;80353;-63
2023/10/07 04:34:13;;;;;;;5.38;2.90;;;23.20;55.70;;;;;;7674588;22;81311;-65
2023/10/07 04:37:17;;;;;;;4.50;2.40;;;23.20;55.70;;;;;;7675145;22;80769;-64
2023/10/07 04:43:50;;;;;;;5.55;3.10;;;23.20;55.80;;;;;;7677202;22;80229;-66
2023/10/07 04:46:56;;;;;;;4.72;2.35;;;23.20;55.80;;;;;;7670420;22;80752;-63
2023/10/07 04:50:06;;;;;;;4.22;2.67;;;23.20;55.80;;;;;;7673177;22;80460;-65
2023/10/07 04:53:06;;;;;;;8.73;3.10;;;23.20;55.70;;;;;;7672603;22;80429;-64
2023/10/07 04:56:07;;;;;;;5.88;2.45;;;23.20;55.80;;;;;;7675787;22;80903;-64
2023/10/07 04:59:09;;;;;;;5.18;2.72;;;23.20;55.90;;;;;;7677997;22;80604;-64
2023/10/07 05:02:10;;;;;;;4.28;2.53;;;23.20;56.00;;;;;;7652105;22;83393;-63
2023/10/07 05:05:13;;;;;;;3.95;2.60;;;23.20;56.20;;;;;;7679990;22;80259;-62
2023/10/07 05:08:17;;;;;;;3.47;2.20;;;23.20;56.20;;;;;;7677856;22;80769;-63
2023/10/07 05:11:18;;;;;;;5.47;2.90;;;23.20;56.30;;;;;;7676737;22;80155;-63
2023/10/07 05:14:21;;;;;;;7.70;3.05;;;23.20;56.50;;;;;;7676314;22;85122;-62
2023/10/07 05:17:22;;;;;;;3.67;2.50;;;23.20;56.40;;;;;;7678596;22;80293;-63
2023/10/07 05:20:31;;;;;;;4.03;2.45;;;23.20;56.40;;;;;;7676038;22;80199;-64
2023/10/07 05:23:33;;;;;;;7.13;3.05;;;23.20;57.00;;;;;;7673266;22;80658;-63
2023/10/07 05:26:34;;;;;;;4.13;2.53;;;23.20;57.00;;;;;;7676641;22;80989;-63
2023/10/07 05:29:35;;;;;;;7.18;2.72;;;23.20;56.80;;;;;;7678107;22;80817;-64
2023/10/07 05:32:35;;;;;;;9.07;2.97;;;23.20;56.60;;;;;;7678084;22;81253;-63
2023/10/07 05:35:37;;;;;;;5.20;2.90;;;23.20;56.70;;;;;;7678436;22;80145;-64
2023/10/07 05:38:38;;;;;;;3.00;2.22;;;23.20;56.50;;;;;;7677678;22;80276;-67
2023/10/07 05:41:41;;;;;;;11.18;3.08;;;23.20;56.90;;;;;;7653770;22;80346;-64
2023/10/07 05:44:41;;;;;;;7.82;2.72;;;23.20;56.90;;;;;;7679337;22;80848;-66
2023/10/07 05:47:43;;;;;;;7.55;3.05;;;23.30;56.70;;;;;;7679187;22;80332;-70
2023/10/07 05:50:44;;;;;;;4.95;2.47;;;23.30;56.80;;;;;;7679598;22;80586;-65
2023/10/07 05:53:48;;;;;;;4.25;2.15;;;23.30;57.20;;;;;;7649388;22;81261;-60
2023/10/07 05:56:48;;;;;;;7.30;2.60;;;23.30;57.70;;;;;;7655551;22;81148;-63
2023/10/07 05:59:50;;;;;;;5.40;3.10;;;23.40;58.20;;;;;;7663042;22;80963;-62
2023/10/07 06:02:53;;;;;;;9.68;2.90;;;23.40;58.10;;;;;;7658197;22;81047;-63
2023/10/07 06:05:53;;;;;;;9.10;3.20;;;23.30;57.90;;;;;;7660896;22;80983;-59
2023/10/07 06:08:54;;;;;;;4.78;2.80;;;23.40;58.10;;;;;;7660554;22;80913;-62
2023/10/07 06:11:57;;;;;;;6.55;3.38;;;23.40;58.10;;;;;;7661503;22;81038;-58
2023/10/07 06:14:58;;;;;;;7.07;4.18;;;23.40;58.40;;;;;;7674245;22;81446;-51
2023/10/07 06:17:58;;;;;;;11.73;4.78;;;23.40;58.30;;;;;;7674636;22;80928;-52
2023/10/07 06:21:17;;;;;;;10.48;4.57;;;23.40;58.50;;;;;;7673248;22;80353;-51
2023/10/07 06:24:21;;;;;;;9.55;4.45;;;23.40;58.50;;;;;;7673396;22;80876;-58
2023/10/07 06:27:21;;;;;;;9.23;5.00;;;23.40;58.70;;;;;;7673998;22;80245;-54
2023/10/07 06:30:22;;;;;;;8.43;4.78;;;23.50;58.80;;;;;;7670611;22;81002;-53
2023/10/07 06:33:23;;;;;;;9.38;4.45;;;23.40;58.70;;;;;;7676059;22;80800;-51
2023/10/07 06:36:23;;;;;;;12.43;5.28;;;23.50;58.80;;;;;;7678708;22;80061;-53
2023/10/07 06:39:27;;;;;;;10.98;5.10;;;23.50;58.70;;;;;;7675260;22;81714;-50
2023/10/07 06:42:27;;;;;;;13.73;5.30;;;23.40;58.60;;;;;;7678100;22;80308;-49
2023/10/07 06:45:39;;;;;;;13.75;5.07;;;23.40;59.60;;;;;;7656132;22;80681;-50
2023/10/07 06:48:39;;;;;;;12.85;4.43;;;23.40;60.00;;;;;;7632494;22;82568;-56
2023/10/07 06:51:40;;;;;;;11.00;4.85;;;23.50;60.70;;;;;;7659958;22;80858;-56
2023/10/07 06:54:41;;;;;;;10.55;4.47;;;23.50;60.90;;;;;;7656794;22;80954;-54
2023/10/07 06:57:42;;;;;;;10.65;4.15;;;23.50;60.40;;;;;;7657140;22;81118;-56
2023/10/07 07:00:49;;;;;;;14.45;4.90;;;23.50;60.30;;;;;;7654490;22;81188;-55
2023/10/07 07:03:51;;;;;;;8.75;4.45;;;23.50;60.40;;;;;;7655709;22;80849;-55
2023/10/07 07:07:10;;;;;;;12.48;4.10;;;23.50;60.40;;;;;;7661059;22;80797;-58
2023/10/07 07:10:16;;;;;;;11.70;4.30;;;23.50;60.40;;;;;;7645551;22;81493;-58
2023/10/07 07:13:22;;;;;;;9.43;4.50;;;23.50;60.40;;;;;;7677773;22;81317;-59
2023/10/07 07:16:24;;;;;;;9.57;4.05;;;23.50;61.10;;;;;;7675012;22;81837;-59
2023/10/07 07:19:24;;;;;;;10.65;3.92;;;23.40;60.60;;;;;;7674834;22;80730;-59
2023/10/07 07:22:25;;;;;;;11.23;4.55;;;23.40;58.50;;;;;;7671789;22;80622;-51
2023/10/07 07:28:30;;;;;;;7.75;4.32;;;23.40;59.30;;;;;;7678614;22;80731;-52
2023/10/07 07:31:34;;;;;;;7.40;3.58;;;23.40;59.10;;;;;;7679340;22;81332;-52
2023/10/07 07:34:36;;;;;;;7.05;4.22;;;23.40;58.50;;;;;;7677008;22;80989;-52
2023/10/07 07:37:37;;;;;;;8.18;4.25;;;23.30;58.10;;;;;;7677384;22;81199;-52
2023/10/07 07:40:40;;;;;;;9.93;3.95;;;23.40;58.10;;;;;;7679971;22;80574;-55
2023/10/07 07:43:43;;;;;;;8.05;4.35;;;23.40;58.10;;;;;;7682097;22;81074;-52
2023/10/07 07:46:51;;;;;;;11.77;4.75;;;23.40;57.80;;;;;;7680028;22;80476;-53
2023/10/07 07:49:51;;;;;;;7.22;4.38;;;23.40;57.30;;;;;;7681898;22;81103;-56
2023/10/07 07:52:53;;;;;;;8.48;4.32;;;23.40;57.80;;;;;;7681445;22;80618;-51
2023/10/07 07:55:56;;;;;;;8.02;3.95;;;23.40;57.40;;;;;;7680346;22;80853;-54
2023/10/07 07:58:57;;;;;;;10.30;4.53;;;23.40;57.30;;;;;;7679566;22;80404;-54
2023/10/07 08:02:13;;;;;;;15.93;5.13;;;23.40;57.70;;;;;;7679353;22;80609;-52
2023/10/07 08:05:16;;;;;;;6.32;3.78;;;23.40;57.20;;;;;;7675067;22;81079;-52
2023/10/07 08:08:25;;;;;;;10.55;4.35;;;23.40;57.10;;;;;;7680085;22;81389;-56
2023/10/07 08:11:26;;;;;;;16.45;4.15;;;23.30;56.30;;;;;;7677264;22;84577;-49
2023/10/07 08:14:27;;;;;;;10.38;4.18;;;23.20;56.20;;;;;;7676923;22;80215;-45
2023/10/07 08:17:27;;;;;;;8.23;3.55;;;23.20;56.60;;;;;;7678280;22;80792;-49
2023/10/07 08:20:37;;;;;;;8.02;3.92;;;23.20;56.30;;;;;;7678719;22;87172;-52
2023/10/07 08:23:40;;;;;;;7.07;4.35;;;23.20;56.30;;;;;;7674619;22;80442;-61
2023/10/07 08:26:48;;;;;;;10.25;4.53;;;23.20;56.30;;;;;;7678986;22;81263;-62
2023/10/07 08:29:53;;;;;;;7.03;4.25;;;23.20;56.40;;;;;;7679782;22;80318;-62
2023/10/07 08:32:54;;;;;;;13.55;4.47;;;23.30;56.60;;;;;;7675611;22;80503;-58
2023/10/07 08:35:55;;;;;;;10.10;3.78;;;23.30;56.90;;;;;;7677453;22;80424;-59
2023/10/07 08:38:58;;;;;;;9.25;4.55;;;23.30;56.70;;;;;;7677798;22;80459;-60
2023/10/07 08:42:00;;;;;;;13.75;5.10;;;23.40;56.30;;;;;;7678719;22;80287;-59
2023/10/07 08:45:00;;;;;;;8.05;4.20;;;23.40;56.30;;;;;;7677621;22;80179;-59
2023/10/07 08:48:16;;;;;;;8.93;4.55;;;23.30;55.90;;;;;;7678471;22;80409;-61
2023/10/07 08:51:21;;;;;;;17.75;5.15;;;23.40;56.50;;;;;;7679381;22;80321;-64
2023/10/07 08:54:31;;;;;;;13.85;4.13;;;23.50;56.80;;;;;;7676795;22;81238;-64
2023/10/07 08:57:34;;;;;;;9.55;4.47;;;23.60;57.10;;;;;;7678434;22;80340;-71
2023/10/07 09:00:39;;;;;;;7.93;4.53;;;23.60;57.50;;;;;;7679478;22;80149;-77
2023/10/07 09:03:39;;;;;;;7.47;4.07;;;23.60;58.00;;;;;;7679007;22;80302;-66
2023/10/07 09:06:50;;;;;;;19.83;4.35;;;23.60;57.60;;;;;;7680129;22;80378;-75
2023/10/07 09:09:52;;;;;;;9.40;4.57;;;23.60;57.40;;;;;;7679656;22;80117;-66
2023/10/07 09:12:56;;;;;;;12.27;4.10;;;23.70;57.20;;;;;;7672738;22;85878;-61
2023/10/07 09:16:00;;;;;;;13.15;4.55;;;23.70;57.30;;;;;;7677762;22;80291;-61
2023/10/07 09:19:03;;;;;;;8.40;3.75;;;23.70;56.80;;;;;;7675304;22;80519;-62
2023/10/07 09:22:10;;;;;;;8.80;3.88;;;23.80;56.80;;;;;;7677154;22;80992;-63
2023/10/07 09:25:17;;;;;;;15.00;4.85;;;23.80;56.50;;;;;;7675707;22;81116;-63
2023/10/07 09:28:21;;;;;;;7.53;4.20;;;23.90;56.60;;;;;;7674497;22;81218;-63
2023/10/07 09:31:23;;;;;;;9.30;4.40;;;24.00;57.00;;;;;;7676419;22;81366;-63
2023/10/07 09:34:41;;;;;;;11.85;4.82;;;24.00;57.10;;;;;;7675742;22;80851;-63
2023/10/07 09:37:42;;;;;;;9.65;4.35;;;24.10;57.30;;;;;;7675581;22;80845;-64
2023/10/07 09:44:00;;;;;;;7.45;4.30;;;24.20;57.40;;;;;;7679570;22;80728;-62
2023/10/07 09:47:09;;;;;;;9.30;4.47;;;24.20;57.10;;;;;;7679377;22;81013;-61
2023/10/07 09:53:40;;;;;;;8.10;4.25;;;24.30;56.70;;;;;;7658926;22;85276;-56
2023/10/07 09:56:43;;;;;;;12.27;3.85;;;24.30;56.60;;;;;;7678654;22;81270;-57
2023/10/07 09:59:44;;;;;;;8.18;4.00;;;24.30;56.60;;;;;;7679066;22;80386;-56
2023/10/07 10:02:44;;;;;;;8.48;3.80;;;24.30;56.20;;;;;;7678023;22;80237;-56
2023/10/07 10:05:45;;;;;;;7.20;3.63;;;24.30;56.30;;;;;;7678376;22;80116;-58
2023/10/07 10:08:45;;;;;;;6.45;3.38;;;24.40;56.80;;;;;;7678870;22;80318;-56
2023/10/07 10:11:46;;;;;;;8.52;3.75;;;24.40;57.10;;;;;;7679956;22;80686;-61
2023/10/07 10:18:06;;;;;;;9.63;3.90;;;24.40;57.80;;;;;;7680334;22;80995;-61
2023/10/07 10:21:09;;;;;;;6.90;3.20;;;24.50;56.90;;;;;;7679780;22;80992;-63
2023/10/07 10:24:09;;;;;;;9.07;3.60;;;24.50;57.60;;;;;;7680318;22;80365;-62
2023/10/07 10:27:10;;;;;;;7.60;3.58;;;24.50;57.70;;;;;;7680046;22;80239;-63
2023/10/07 10:30:10;;;;;;;5.45;3.75;;;24.50;57.10;;;;;;7680280;22;80164;-58
2023/10/07 10:33:11;;;;;;;7.20;3.90;;;24.60;57.30;;;;;;7679738;22;80827;-58
2023/10/07 10:36:13;;;;;;;10.38;4.30;;;24.60;57.00;;;;;;7680205;22;81166;-57
2023/10/07 10:39:18;;;;;;;6.30;3.67;;;24.70;56.70;;;;;;7680896;22;80660;-56
2023/10/07 10:42:19;;;;;;;8.73;4.00;;;24.70;57.40;;;;;;7680704;22;80230;-57
2023/10/07 10:45:19;;;;;;;6.57;3.67;;;24.70;56.90;;;;;;7680084;22;80345;-57
2023/10/07 10:48:20;;;;;;;6.60;4.00;;;24.70;57.00;;;;;;7679494;22;80681;-56
2023/10/07 10:51:20;;;;;;;7.65;4.32;;;24.70;57.00;;;;;;7679455;22;80936;-57
2023/10/07 10:54:21;;;;;;;8.13;4.22;;;24.80;57.50;;;;;;7679027;22;80317;-58
2023/10/07 10:57:24;;;;;;;8.30;3.80;;;24.80;57.10;;;;;;7679583;22;80296;-58
2023/10/07 11:00:24;;;;;;;5.28;3.13;;;24.80;56.30;;;;;;7679061;22;81430;-56
2023/10/07 11:03:25;;;;;;;8.13;3.45;;;24.80;56.40;;;;;;7680689;22;80615;-57
2023/10/07 11:06:28;;;;;;;7.50;3.15;;;24.80;56.20;;;;;;7679665;22;80229;-54
2023/10/07 11:09:36;;;;;;;6.13;3.08;;;24.90;56.50;;;;;;7679985;22;80180;-63
2023/10/07 11:12:36;;;;;;;6.20;2.95;;;24.80;56.30;;;;;;7679619;22;80357;-61
2023/10/07 11:15:40;;;;;;;6.80;3.38;;;24.80;56.40;;;;;;7678897;22;80160;-62
2023/10/07 11:18:45;;;;;;;5.65;3.28;;;24.80;55.90;;;;;;7679439;22;80993;-60
2023/10/07 11:21:48;;;;;;;9.23;3.45;;;24.90;55.90;;;;;;7679359;22;80275;-62
2023/10/07 11:24:52;;;;;;;7.70;3.42;;;24.90;55.90;;;;;;7677975;22;80071;-61
2023/10/07 11:27:52;;;;;;;7.20;4.00;;;24.90;56.20;;;;;;7680482;22;80340;-53
2023/10/07 11:30:53;;;;;;;5.95;3.33;;;24.90;56.20;;;;;;7678829;22;80275;-55
2023/10/07 11:33:53;;;;;;;7.03;3.70;;;25.00;56.30;;;;;;7679913;22;80487;-54
2023/10/07 11:36:54;;;;;;;7.03;3.13;;;25.00;56.40;;;;;;7679384;22;80487;-52
2023/10/07 11:39:54;;;;;;;6.78;3.63;;;25.00;56.10;;;;;;7679509;22;81388;-52
2023/10/07 11:42:58;;;;;;;5.88;3.42;;;25.00;56.20;;;;;;7679105;22;80507;-56
2023/10/07 11:45:59;;;;;;;8.82;3.22;;;24.90;55.80;;;;;;7678454;22;80331;-57
2023/10/07 11:48:59;;;;;;;8.77;3.85;;;24.90;55.50;;;;;;7679113;22;80566;-56
2023/10/07 11:52:00;;;;;;;7.70;3.15;;;24.90;55.30;;;;;;7680328;22;80792;-56
2023/10/07 11:55:00;;;;;;;5.88;3.13;;;24.80;55.10;;;;;;7679260;22;80488;-54
2023/10/07 11:58:01;;;;;;;8.45;3.67;;;24.80;55.00;;;;;;7680054;22;80820;-52
2023/10/07 12:01:03;;;;;;;8.27;4.10;;;24.80;54.90;;;;;;7679577;22;81637;-56
2023/10/07 12:04:05;;;;;;;8.40;3.97;;;24.80;54.80;;;;;;7680231;22;81326;-61
2023/10/07 12:07:06;;;;;;;7.70;3.20;;;24.80;54.80;;;;;;7679861;22;80910;-60
2023/10/07 12:10:15;;;;;;;6.18;3.72;;;24.90;55.10;;;;;;7679458;22;80885;-61
2023/10/07 12:13:15;;;;;;;10.20;3.40;;;24.90;55.70;;;;;;7679417;22;80448;-62
2023/10/07 12:16:16;;;;;;;5.32;3.22;;;24.90;56.50;;;;;;7679849;22;80514;-61
2023/10/07 12:19:17;;;;;;;7.90;3.83;;;24.90;56.90;;;;;;7679152;22;81488;-63
2023/10/07 12:22:17;;;;;;;5.97;3.75;;;24.80;57.00;;;;;;7679124;22;80389;-53
2023/10/07 12:25:18;;;;;;;7.72;3.80;;;24.80;56.40;;;;;;7679017;22;80746;-52
2023/10/07 12:28:19;;;;;;;6.22;3.63;;;24.80;56.20;;;;;;7679550;22;80589;-54
2023/10/07 12:31:21;;;;;;;6.55;3.53;;;24.70;55.60;;;;;;7678457;22;80494;-52
2023/10/07 12:34:21;;;;;;;6.18;3.72;;;24.80;54.90;;;;;;7679807;22;80382;-51
2023/10/07 12:37:22;;;;;;;8.38;4.07;;;24.80;54.70;;;;;;7680149;22;81018;-50
2023/10/07 12:40:22;;;;;;;6.18;3.53;;;24.80;55.00;;;;;;7679280;22;80464;-62
2023/10/07 12:43:23;;;;;;;7.18;4.03;;;24.80;54.90;;;;;;7679492;22;80368;-60
2023/10/07 12:46:23;;;;;;;5.82;3.30;;;24.70;55.00;;;;;;7652338;22;80666;-61
2023/10/07 12:49:24;;;;;;;5.80;3.65;;;24.70;54.80;;;;;;7660744;22;80998;-64
2023/10/07 12:52:26;;;;;;;6.82;3.63;;;24.70;54.90;;;;;;7676091;22;80794;-68
2023/10/07 12:55:26;;;;;;;6.85;3.47;;;24.60;54.80;;;;;;7678044;22;81357;-71
2023/10/07 12:58:27;;;;;;;12.05;3.88;;;24.60;55.00;;;;;;7677094;22;80884;-58
2023/10/07 13:01:31;;;;;;;10.43;3.83;;;24.60;55.10;;;;;;7638434;22;81377;-58
2023/10/07 13:04:35;;;;;;;17.70;3.78;;;24.60;55.30;;;;;;7677862;22;81720;-59
2023/10/07 13:07:35;;;;;;;8.35;4.22;;;24.70;55.30;;;;;;7671358;22;80974;-61
2023/10/07 13:10:35;;;;;;;8.02;4.18;;;24.70;55.30;;;;;;7676853;22;81501;-56
2023/10/07 13:13:36;;;;;;;14.48;4.68;;;24.80;55.60;;;;;;7674237;22;81181;-59
2023/10/07 13:16:37;;;;;;;29.77;5.28;;;24.80;56.60;;;;;;7679465;22;81319;-62
2023/10/07 13:19:38;;;;;;;12.70;4.82;;;24.90;56.90;;;;;;7674787;22;80589;-60
2023/10/07 13:22:38;;;;;;;11.88;4.65;;;24.90;57.10;;;;;;7679490;22;80551;-60
2023/10/07 13:25:39;;;;;;;15.05;4.53;;;24.90;57.60;;;;;;7679488;22;80331;-59
2023/10/07 13:28:39;;;;;;;19.30;5.90;;;24.90;57.10;;;;;;7679913;22;80362;-60
2023/10/07 13:31:40;;;;;;;15.57;5.40;;;24.90;56.80;;;;;;7680452;22;80257;-60
2023/10/07 13:34:41;;;;;;;18.67;5.82;;;24.90;57.10;;;;;;7676721;22;80384;-72
2023/10/07 13:37:43;;;;;;;16.08;5.93;;;24.90;57.50;;;;;;7649762;22;80410;-66
2023/10/07 13:40:43;;;;;;;13.68;5.53;;;24.80;57.10;;;;;;7673000;22;81392;-72
2023/10/07 13:43:44;;;;;;;20.33;6.07;;;24.80;56.90;;;;;;7674136;22;80547;-69
2023/10/07 13:46:44;;;;;;;14.27;5.38;;;24.70;56.80;;;;;;7675844;22;80195;-65
2023/10/07 13:49:46;;;;;;;22.02;5.53;;;24.70;57.10;;;;;;7674263;22;80330;-72
2023/10/07 13:52:50;;;;;;;16.23;5.45;;;24.60;56.90;;;;;;7675364;22;81464;-73
2023/10/07 13:58:54;;;;;;;18.15;5.72;;;24.60;56.30;;;;;;7672612;22;80683;-64
2023/10/07 14:02:00;;;;;;;11.35;4.30;;;24.60;56.80;;;;;;7650124;22;81520;-68
2023/10/07 14:05:00;;;;;;;;;;;24.60;56.70;;;;;;7676176;22;80663;-68
2023/10/07 14:08:01;;;;;;;11.80;5.40;;;24.60;56.30;;;;;;7682433;22;79229;-73
2023/10/07 14:11:02;;;;;;;13.38;5.38;;;24.60;56.60;;;;;;7676849;22;80366;-59
2023/10/07 14:14:04;;;;;;;9.57;5.00;;;24.60;54.70;;;;;;7672304;22;81345;-55
2023/10/07 14:17:06;;;;;;;9.77;4.72;;;24.40;55.20;;;;;;7674138;22;80441;-59
2023/10/07 14:20:07;;;;;;;11.27;5.20;;;24.30;54.80;;;;;;7664235;22;81751;-56
2023/10/07 14:23:08;;;;;;;10.30;4.30;;;24.30;54.70;;;;;;7663611;22;81959;-58
2023/10/07 14:26:09;;;;;;;10.30;4.82;;;24.20;54.10;;;;;;7673225;22;80622;-59
2023/10/07 14:29:09;;;;;;;7.80;4.03;;;24.10;53.70;;;;;;7670747;22;81086;-58
2023/10/07 14:32:11;;;;;;;19.42;5.65;;;24.10;53.80;;;;;;7674208;22;80349;-59
2023/10/07 14:35:11;;;;;;;9.73;5.00;;;24.00;53.70;;;;;;7674480;22;80442;-58
2023/10/07 14:38:12;;;;;;;8.35;4.70;;;24.00;53.90;;;;;;7676696;22;80182;-58
2023/10/07 14:41:13;;;;;;;17.48;4.47;;;23.80;53.90;;;;;;7668274;22;81404;-60
2023/10/07 14:44:13;;;;;;;9.07;4.65;;;23.80;53.40;;;;;;7673590;22;80426;-58
2023/10/07 14:47:14;;;;;;;9.70;4.40;;;23.80;53.80;;;;;;7676277;22;80698;-63
2023/10/07 14:50:15;;;;;;;8.57;4.43;;;23.70;53.70;;;;;;7677203;22;80317;-66
2023/10/07 14:53:15;;;;;;;10.23;4.35;;;23.70;53.70;;;;;;7673313;22;80628;-60
2023/10/07 14:56:16;;;;;;;11.45;4.93;;;23.60;53.60;;;;;;7676678;22;80627;-66
2023/10/07 14:59:19;;;;;;;10.43;4.70;;;23.60;53.60;;;;;;7678599;22;80688;-65
2023/10/07 15:02:20;;;;;;;7.70;4.38;;;23.50;53.60;;;;;;7678914;22;84788;-66
2023/10/07 15:05:21;;;;;;;9.43;4.10;;;23.50;53.90;;;;;;7679417;22;80461;-67
2023/10/07 15:08:21;;;;;;;8.98;4.72;;;23.50;54.20;;;;;;7680831;22;80738;-67
2023/10/07 15:11:23;;;;;;;8.32;4.07;;;23.50;54.30;;;;;;7677771;22;80404;-65
2023/10/07 15:14:23;;;;;;;11.38;4.75;;;23.50;54.50;;;;;;7673789;22;80667;-62
2023/10/07 15:17:24;;;;;;;10.57;3.92;;;23.50;54.80;;;;;;7680799;22;80744;-63
2023/10/07 15:20:24;;;;;;;10.98;4.65;;;23.50;54.70;;;;;;7658962;22;81528;-65
2023/10/07 15:23:25;;;;;;;12.75;4.32;;;23.50;55.00;;;;;;7660621;22;81337;-58
2023/10/07 15:26:25;;;;;;;8.85;4.10;;;23.50;55.10;;;;;;7661181;22;81152;-58
2023/10/07 15:29:26;;;;;;;10.32;5.32;;;23.60;55.00;;;;;;7660690;22;81131;-57
2023/10/07 15:32:29;;;;;;;8.93;4.35;;;23.60;55.00;;;;;;7661781;22;80688;-59
2023/10/07 15:35:32;;;;;;;7.65;3.92;;;23.60;55.00;;;;;;7659598;22;80626;-56
2023/10/07 15:38:33;;;;;;;8.52;4.47;;;23.60;55.00;;;;;;7661666;22;80640;-58
2023/10/07 15:41:33;;;;;;;8.88;4.45;;;23.60;55.10;;;;;;7661385;22;80807;-58
2023/10/07 15:44:34;;;;;;;7.55;4.28;;;23.60;55.20;;;;;;7661655;22;81099;-58
2023/10/07 15:47:34;;;;;;;7.10;4.30;;;23.60;55.20;;;;;;7662152;22;81308;-57
2023/10/07 15:50:35;;;;;;;7.32;4.18;;;23.60;55.30;;;;;;7660461;22;80906;-59
2023/10/07 15:53:37;;;;;;;10.15;4.07;;;23.60;55.40;;;;;;7660464;22;81791;-56
2023/10/07 15:56:39;;;;;;;8.80;4.38;;;23.60;55.40;;;;;;7660231;22;80615;-57
2023/10/07 15:59:41;;;;;;;12.45;4.60;;;23.60;55.40;;;;;;7660533;22;80277;-55
2023/10/07 16:02:41;;;;;;;10.15;4.82;;;23.60;55.40;;;;;;7660930;22;81565;-57
2023/10/07 16:05:42;;;;;;;13.98;5.20;;;23.60;55.50;;;;;;7664433;22;80943;-59
2023/10/07 16:08:42;;;;;;;11.18;4.45;;;23.60;55.60;;;;;;7674023;22;80443;-58
2023/10/07 16:11:43;;;;;;;8.95;4.43;;;23.50;55.70;;;;;;7668837;22;80764;-59
2023/10/07 16:14:43;;;;;;;7.75;4.85;;;23.50;55.90;;;;;;7671411;22;81001;-58
2023/10/07 16:17:45;;;;;;;8.55;4.78;;;23.50;56.10;;;;;;7674522;22;80532;-58
2023/10/07 16:20:45;;;;;;;8.90;4.30;;;23.40;56.10;;;;;;7676665;22;80540;-66
2023/10/07 16:23:47;;;;;;;7.10;4.32;;;23.40;56.30;;;;;;7677619;22;80460;-68
2023/10/07 16:26:48;;;;;;;7.40;4.40;;;23.40;56.40;;;;;;7678680;22;80784;-68